Time;durP1;ratioP1;P1;durP2;ratioP2;P2;SDS_P1;SDS_P2;PMS_P1;PMS_P2;Temp;Humidity;BMP_temperature;BMP_pressure;BME280_temperature;BME280_humidity;BME280_pressure;Samples;Min_cycle;Max_cycle;Signal;HPM_P1;HPM_P2
2022/05/19 00:01:53;;;;;;;2.33;1.33;;;;;;;4.17;100.00;96002.84;5075145;27;20033;-72
2022/05/19 00:04:20;;;;;;;6.30;1.77;;;;;;;4.18;100.00;96019.94;5044721;27;20052;-72
2022/05/19 00:06:47;;;;;;;2.30;1.63;;;;;;;4.12;100.00;96019.75;5034805;27;20791;-72
2022/05/19 00:09:14;;;;;;;3.83;1.33;;;;;;;4.08;100.00;96028.78;5064236;27;20515;-73
2022/05/19 00:11:42;;;;;;;3.00;1.25;;;;;;;4.10;100.00;96027.66;5072449;27;20530;-72
2022/05/19 00:14:10;;;;;;;8.98;1.35;;;;;;;3.98;100.00;96013.47;5034781;27;20045;-72
2022/05/19 00:16:37;;;;;;;3.22;1.75;;;;;;;4.11;100.00;96023.31;5041548;27;20482;-73
2022/05/19 00:19:04;;;;;;;3.13;1.83;;;;;;;4.06;100.00;96023.00;5061390;27;20042;-73
2022/05/19 00:21:31;;;;;;;7.70;1.98;;;;;;;4.11;100.00;96023.31;5039643;27;20044;-73
2022/05/19 00:23:58;;;;;;;2.83;2.05;;;;;;;4.04;100.00;96006.88;5045141;27;20049;-73
2022/05/19 00:26:26;;;;;;;2.15;1.60;;;;;;;4.12;100.00;96024.91;5076270;27;20405;-73
2022/05/19 00:28:53;;;;;;;6.40;2.08;;;;;;;4.01;100.00;96029.41;5050227;27;20617;-72
2022/05/19 00:31:20;;;;;;;8.93;1.50;;;;;;;3.86;100.00;96012.97;5051920;27;20602;-73
2022/05/19 00:33:47;;;;;;;5.57;2.42;;;;;;;3.86;100.00;96036.19;5087849;27;20053;-72
2022/05/19 00:36:19;;;;;;;2.80;1.80;;;;;;;3.77;100.00;96043.09;5027918;27;20065;-73
2022/05/19 00:38:46;;;;;;;4.55;1.75;;;;;;;3.72;100.00;96039.38;5056078;27;20049;-72
2022/05/19 00:41:15;;;;;;;1.92;1.52;;;;;;;3.64;100.00;96038.41;5039269;27;20068;-72
2022/05/19 00:44:04;;;;;;;3.63;1.90;;;;;;;3.62;100.00;96040.31;5066565;27;20581;-72
2022/05/19 00:46:56;;;;;;;5.28;1.80;;;;;;;3.54;100.00;96053.16;5041753;27;20520;-72
2022/05/19 00:49:33;;;;;;;5.93;1.30;;;;;;;3.54;100.00;96048.03;5038936;27;20519;-72
2022/05/19 00:52:04;;;;;;;2.58;1.67;;;;;;;3.39;100.00;96034.16;5051336;27;20041;-72
2022/05/19 00:55:15;;;;;;;2.15;1.70;;;;;;;3.45;100.00;96048.97;5052470;27;20423;-71
2022/05/19 00:57:46;;;;;;;4.28;1.70;;;;;;;3.21;100.00;96032.47;5072016;27;20697;-72
2022/05/19 01:00:17;;;;;;;4.35;1.65;;;;;;;3.19;100.00;96039.53;5048160;27;20037;-73
2022/05/19 01:02:57;;;;;;;2.60;1.40;;;;;;;3.29;100.00;96049.72;5038668;27;20045;-72
2022/05/19 01:05:24;;;;;;;2.80;1.90;;;;;;;3.31;100.00;96057.28;5050136;27;20039;-72
2022/05/19 01:08:08;;;;;;;5.03;2.35;;;;;;;3.18;100.00;96037.91;5066885;27;20056;-72
2022/05/19 01:10:36;;;;;;;3.30;2.03;;;;;;;3.23;100.00;96056.28;5055752;27;20544;-72
2022/05/19 01:13:04;;;;;;;3.70;2.28;;;;;;;3.18;100.00;96053.38;5079872;27;20046;-72
2022/05/19 01:15:40;;;;;;;2.65;1.92;;;;;;;3.18;100.00;96058.50;5066920;27;20038;-73
2022/05/19 01:18:09;;;;;;;5.13;2.30;;;;;;;3.14;100.00;96052.06;5081308;27;20056;-73
2022/05/19 01:20:36;;;;;;;4.13;1.92;;;;;;;3.10;100.00;96045.63;5067983;27;20569;-72
2022/05/19 01:23:28;;;;;;;4.63;2.60;;;;;;;3.22;100.00;96043.56;5019196;27;20519;-72
2022/05/19 01:26:05;;;;;;;4.03;2.05;;;;;;;3.23;100.00;96046.00;5082235;27;20046;-72
2022/05/19 01:28:32;;;;;;;4.95;2.92;;;;;;;3.20;100.00;96046.28;5045686;27;20090;-73
2022/05/19 01:30:58;;;;;;;4.47;2.67;;;;;;;3.30;100.00;96055.69;5043493;27;20036;-73
2022/05/19 01:33:26;;;;;;;4.85;2.55;;;;;;;3.25;100.00;96044.06;5044501;27;20048;-72
2022/05/19 01:35:53;;;;;;;9.30;3.00;;;;;;;3.28;100.00;96047.28;5052293;27;20590;-72
2022/05/19 01:38:25;;;;;;;3.45;2.80;;;;;;;3.35;100.00;96058.56;5077864;27;20042;-72
2022/05/19 01:41:21;;;;;;;;;;;;;;;3.28;100.00;96057.59;5076410;27;20042;-72
2022/05/19 01:44:10;;;;;;;3.63;2.55;;;;;;;3.23;100.00;96060.63;5073495;27;20251;-73
2022/05/19 01:46:39;;;;;;;4.65;2.92;;;;;;;3.25;100.00;96059.50;5071063;27;20063;-72
2022/05/19 01:49:18;;;;;;;8.15;2.80;;;;;;;3.28;100.00;96062.72;5074720;27;20043;-73
2022/05/19 01:52:05;;;;;;;7.03;2.78;;;;;;;3.28;100.00;96057.59;5054242;27;20037;-73
2022/05/19 01:54:38;;;;;;;4.00;3.03;;;;;;;3.33;100.00;96075.97;5050205;27;20045;-72
2022/05/19 01:57:35;;;;;;;4.22;2.63;;;;;;;3.29;100.00;96072.88;5039268;27;20045;-73
2022/05/19 02:00:07;;;;;;;4.70;2.25;;;;;;;3.24;100.00;96063.06;5089210;27;20048;-73
2022/05/19 02:02:50;;;;;;;5.07;2.80;;;;;;;3.06;100.00;96039.16;5037486;27;20041;-72
2022/05/19 02:05:26;;;;;;;4.07;2.67;;;;;;;3.29;100.00;96075.47;5068125;27;20041;-73
2022/05/19 02:07:58;;;;;;;4.05;2.40;;;;;;;3.17;100.00;96067.22;5043014;27;20190;-73
2022/05/19 02:10:29;;;;;;;4.30;2.50;;;;;;;3.15;100.00;96076.88;5049652;27;20035;-73
2022/05/19 02:12:59;;;;;;;3.63;2.50;;;;;;;3.12;100.00;96084.09;5036733;27;20613;-72
2022/05/19 02:15:30;;;;;;;3.53;2.00;;;;;;;3.11;100.00;96078.13;5045298;27;20052;-73
2022/05/19 02:17:57;;;;;;;4.28;2.70;;;;;;;3.06;100.00;96090.63;5075976;27;20061;-73
2022/05/19 02:20:27;;;;;;;4.03;2.38;;;;;;;2.99;100.00;96094.78;5057268;27;20041;-73
2022/05/19 02:22:55;;;;;;;4.32;2.67;;;;;;;2.99;100.00;96095.59;5045481;27;20041;-73
2022/05/19 02:25:36;;;;;;;4.93;2.78;;;;;;;2.97;100.00;96091.56;5043549;27;20490;-73
2022/05/19 02:28:05;;;;;;;6.22;3.28;;;;;;;2.75;100.00;96067.94;5030957;27;20041;-72
2022/05/19 02:30:37;;;;;;;7.20;3.53;;;;;;;2.80;100.00;96081.16;5079734;27;20037;-73
2022/05/19 02:33:05;;;;;;;5.15;3.08;;;;;;;2.96;100.00;96089.94;5036572;27;20037;-73
2022/05/19 02:35:33;;;;;;;4.60;3.20;;;;;;;2.92;100.00;96078.31;5023318;27;20041;-73
2022/05/19 02:38:01;;;;;;;8.05;3.70;;;;;;;2.95;100.00;96083.97;5051317;27;20058;-73
2022/05/19 02:40:32;;;;;;;4.43;2.85;;;;;;;2.96;100.00;96089.94;5083427;27;20039;-73
2022/05/19 02:42:59;;;;;;;5.22;2.97;;;;;;;2.92;100.00;96089.44;5044369;27;20037;-73
2022/05/19 02:45:29;;;;;;;9.75;2.90;;;;;;;2.81;100.00;96082.78;5050821;27;20046;-73
2022/05/19 02:47:57;;;;;;;9.60;3.03;;;;;;;2.85;100.00;96094.38;5066532;27;20049;-73
2022/05/19 02:50:25;;;;;;;4.20;2.88;;;;;;;2.77;100.00;96091.75;5043779;27;20054;-73
2022/05/19 02:52:52;;;;;;;11.45;3.63;;;;;;;2.74;100.00;96099.78;5031205;27;20073;-73
2022/05/19 02:55:19;;;;;;;5.07;3.13;;;;;;;2.70;100.00;96102.81;5036988;27;20052;-73
2022/05/19 02:57:51;;;;;;;7.38;3.72;;;;;;;2.74;100.00;96107.50;5046038;27;20053;-73
2022/05/19 03:00:23;;;;;;;6.75;3.63;;;;;;;2.69;100.00;96099.44;5035232;27;20132;-73
2022/05/19 03:02:52;;;;;;;4.72;2.97;;;;;;;2.62;100.00;96099.22;5083264;27;20047;-73
2022/05/19 03:05:23;;;;;;;5.78;2.47;;;;;;;2.59;100.00;96093.56;5061261;27;20116;-73
2022/05/19 03:07:51;;;;;;;6.72;3.20;;;;;;;2.62;100.00;96100.97;5020223;27;20053;-72
2022/05/19 03:10:18;;;;;;;3.47;2.42;;;;;;;2.64;100.00;96102.44;5038610;27;20041;-73
2022/05/19 03:12:45;;;;;;;4.35;3.03;;;;;;;2.65;100.00;96108.41;5036445;27;20033;-73
2022/05/19 03:15:12;;;;;;;12.60;3.50;;;;;;;2.74;100.00;96104.94;5065281;27;20061;-72
2022/05/19 03:17:41;;;;;;;9.15;3.05;;;;;;;2.81;100.00;96098.22;5061678;27;20101;-73
2022/05/19 03:20:09;;;;;;;5.60;2.83;;;;;;;2.90;100.00;96090.53;5119494;27;20066;-73
2022/05/19 03:22:36;;;;;;;13.07;6.63;;;;;;;3.13;100.00;96107.06;5049080;27;20085;-73
2022/05/19 03:25:05;;;;;;;12.02;4.70;;;;;;;3.30;100.00;96107.19;5058877;27;20099;-73
2022/05/19 03:27:36;;;;;;;8.18;4.95;;;;;;;3.42;100.00;96111.09;5065373;27;20052;-73
2022/05/19 03:30:13;;;;;;;6.70;4.40;;;;;;;3.59;100.00;96117.91;5072871;27;20038;-72
2022/05/19 03:32:40;;;;;;;7.57;3.63;;;;;;;3.53;100.00;96087.66;5086523;27;20029;-72
2022/05/19 03:35:07;;;;;;;5.68;3.97;;;;;;;3.77;100.00;96124.75;5046631;27;20041;-72
2022/05/19 03:37:34;;;;;;;4.70;3.33;;;;;;;3.80;100.00;96119.28;5043947;27;20046;-73
2022/05/19 03:40:01;;;;;;;9.13;4.63;;;;;;;3.83;100.00;96119.78;5051611;27;20048;-73
2022/05/19 03:42:28;;;;;;;9.65;3.97;;;;;;;3.84;100.00;96115.44;5046376;27;20448;-72
2022/05/19 03:44:54;;;;;;;5.65;3.83;;;;;;;3.97;100.00;96133.81;5071572;27;20136;-72
2022/05/19 03:47:21;;;;;;;6.93;3.85;;;;;;;3.87;100.00;96112.56;5077885;27;20033;-73
2022/05/19 03:49:48;;;;;;;8.00;4.63;;;;;;;4.10;100.00;96137.72;5044183;27;20049;-72
2022/05/19 03:52:15;;;;;;;7.50;3.58;;;;;;;4.19;100.00;96137.56;5045669;27;20044;-72
2022/05/19 03:54:44;;;;;;;5.70;3.63;;;;;;;4.26;100.00;96142.91;5082292;27;20128;-73
2022/05/19 03:57:13;;;;;;;6.07;3.55;;;;;;;4.29;100.00;96140.03;5040321;27;20435;-72
2022/05/19 03:59:41;;;;;;;5.60;3.28;;;;;;;4.43;100.00;96150.66;5079654;27;20524;-72
2022/05/19 04:02:08;;;;;;;7.40;3.83;;;;;;;4.44;100.00;96131.66;5041503;27;20113;-72
2022/05/19 04:04:54;;;;;;;9.82;3.95;;;;;;;4.63;100.00;96151.16;5044161;27;20048;-73
2022/05/19 04:07:22;;;;;;;5.47;3.72;;;;;;;4.73;100.00;96150.03;5070011;27;20044;-73
2022/05/19 04:09:48;;;;;;;7.75;3.53;;;;;;;4.83;100.00;96149.09;5070372;27;20045;-73
2022/05/19 04:12:20;;;;;;;6.05;3.38;;;;;;;4.88;100.00;96149.38;5063410;27;20037;-77
2022/05/19 04:14:47;;;;;;;6.97;3.65;;;;;;;5.05;100.00;96161.31;5070216;27;20109;-76
2022/05/19 04:17:15;;;;;;;7.05;3.95;;;;;;;5.12;100.00;96149.34;5040461;27;20141;-76
2022/05/19 04:19:42;;;;;;;10.75;5.55;;;;;;;5.22;100.00;96138.03;5055138;27;20033;-76
2022/05/19 04:22:09;;;;;;;10.95;5.32;;;;;;;5.32;100.00;96147.22;5054553;27;20531;-76
2022/05/19 04:24:36;;;;;;;8.88;4.65;;;;;;;5.25;100.00;96140.28;5035232;27;20037;-76
2022/05/19 04:27:04;;;;;;;8.20;5.00;;;;;;;5.51;100.00;96158.97;5036117;27;20446;-76
2022/05/19 04:29:30;;;;;;;8.10;4.63;;;;;;;5.50;100.00;96144.41;5037592;27;20053;-75
2022/05/19 04:32:01;;;;;;;7.10;4.63;;;;;;;5.46;100.00;96140.56;5039057;27;20041;-75
2022/05/19 04:34:28;;;;;;;10.27;5.70;;;;;;;5.52;100.00;96155.38;5042391;27;20049;-76
2022/05/19 04:36:56;;;;;;;14.38;5.35;;;;;;;5.65;100.00;96159.22;5037821;27;20087;-75
2022/05/19 04:39:26;;;;;;;10.90;5.32;;;;;;;5.63;100.00;96153.44;5037141;27;20456;-75
2022/05/19 04:41:53;;;;;;;7.72;4.88;;;;;;;5.71;100.00;96168.91;5038828;27;20048;-76
2022/05/19 04:44:20;;;;;;;8.25;5.03;;;;;;;5.66;100.00;96173.78;5034982;27;20773;-73
2022/05/19 04:46:47;;;;;;;7.43;4.15;;;;;;;5.63;100.00;96159.38;5031507;27;20052;-75
2022/05/19 04:49:14;;;;;;;7.10;4.15;;;;;;;5.70;100.00;96155.16;5036746;27;20036;-76
2022/05/19 04:51:45;;;;;;;6.20;3.97;;;;;;;5.72;100.00;96162.75;5046337;27;20103;-75
2022/05/19 04:54:16;;;;;;;11.75;6.15;;;;;;;5.82;100.00;96163.38;5019356;27;20049;-68
2022/05/19 04:56:43;;;;;;;9.75;5.45;;;;;;;5.88;100.00;96162.69;5038040;27;20136;-75
2022/05/19 04:59:14;;;;;;;8.10;4.90;;;;;;;6.03;100.00;96170.59;5033892;27;20555;-73
2022/05/19 05:01:42;;;;;;;15.05;6.05;;;;;;;6.15;100.00;96171.00;5040523;27;20094;-72
2022/05/19 05:04:10;;;;;;;8.95;5.50;;;;;;;6.22;100.00;96173.72;5037692;27;20055;-75
2022/05/19 05:06:37;;;;;;;9.70;5.75;;;;;;;6.14;100.00;96184.94;5035856;27;20483;-74
2022/05/19 05:09:05;;;;;;;9.23;5.38;;;;;;;6.30;100.00;96197.78;5117444;27;20072;-75
2022/05/19 05:11:32;;;;;;;11.02;4.97;;;;;;;6.36;100.00;96192.91;5041003;27;20067;-75
2022/05/19 05:13:59;;;;;;;8.43;5.18;;;;;;;6.37;100.00;96202.25;5041903;27;20067;-75
2022/05/19 05:16:26;;;;;;;17.00;6.00;;;;;;;6.37;100.00;96192.69;5038665;27;20060;-75
2022/05/19 05:18:53;;;;;;;11.52;6.30;;;;;;;6.39;100.00;96188.19;5037042;27;20041;-75
2022/05/19 05:21:20;;;;;;;11.02;5.90;;;;;;;6.45;100.00;96182.31;5053183;27;20041;-75
2022/05/19 05:23:47;;;;;;;10.50;5.75;;;;;;;6.53;100.00;96191.78;5035409;27;20045;-75
2022/05/19 05:26:14;;;;;;;12.25;6.68;;;;;;;6.65;100.00;96185.25;5045156;27;20057;-76
2022/05/19 05:28:41;;;;;;;11.15;6.97;;;;;;;6.75;100.00;96174.66;5025858;27;20279;-76
2022/05/19 05:31:08;;;;;;;11.02;6.03;;;;;;;7.08;100.00;96184.75;5039981;27;20581;-76
2022/05/19 05:33:35;;;;;;;11.23;6.43;;;;;;;7.28;100.00;96185.06;5061357;27;20030;-76
2022/05/19 05:36:02;;;;;;;9.80;6.28;;;;;;;7.33;100.00;96187.94;5038206;27;20037;-75
2022/05/19 05:38:30;;;;;;;10.93;6.25;;;;;;;7.34;100.00;96184.34;5037013;27;20049;-75
2022/05/19 05:40:59;;;;;;;10.07;6.65;;;;;;;7.36;100.00;96203.09;5042740;27;20422;-76
2022/05/19 05:43:25;;;;;;;16.85;6.38;;;;;;;7.36;100.00;96187.56;5077173;27;20041;-75
2022/05/19 05:45:52;;;;;;;13.25;5.47;;;;;;;7.45;100.00;96202.06;5085525;27;20106;-75
2022/05/19 05:48:20;;;;;;;10.45;6.15;;;;;;;7.76;100.00;96203.69;5069034;27;20152;-76
2022/05/19 05:50:46;;;;;;;8.77;5.90;;;;;;;7.75;100.00;96199.47;5052300;27;20041;-75
2022/05/19 05:53:13;;;;;;;11.70;6.63;;;;;;;7.88;100.00;96192.88;5056967;27;20041;-74
2022/05/19 05:55:40;;;;;;;8.35;5.22;;;;;;;8.09;100.00;96203.31;5067404;27;20121;-74
2022/05/19 05:58:10;;;;;;;9.63;6.90;;;;;;;8.23;100.00;96205.06;5047741;27;20041;-75
2022/05/19 06:00:38;;;;;;;10.52;6.63;;;;;;;8.36;100.00;96203.63;5046108;27;20511;-75
2022/05/19 06:03:05;;;;;;;11.60;6.78;;;;;;;8.37;100.00;96195.66;5079667;27;20607;-75
2022/05/19 06:05:33;;;;;;;7.97;5.68;;;;;;;8.67;100.00;96205.16;5039267;27;20217;-75
2022/05/19 06:08:01;;;;;;;10.38;5.07;;;;;;;8.54;100.00;96204.03;5054720;27;20049;-75
2022/05/19 06:10:28;;;;;;;9.77;5.95;;;;;;;8.39;100.00;96204.06;5064758;27;20048;-75
2022/05/19 06:12:56;;;;;;;10.85;6.75;;;;;;;8.56;100.00;96211.66;5072356;27;20049;-75
2022/05/19 06:15:23;;;;;;;10.57;7.32;;;;;;;8.88;100.00;96207.75;5094932;27;20061;-75
2022/05/19 06:17:50;;;;;;;9.93;5.50;;;;;;;9.10;100.00;96215.56;5092562;27;20055;-66
2022/05/19 06:20:18;;;;;;;12.98;6.85;;;;;;;8.94;100.00;96201.81;5081765;27;20066;-71
2022/05/19 06:22:46;;;;;;;10.10;7.00;;;;;;;9.34;100.00;96217.72;5086046;27;20489;-67
2022/05/19 06:25:18;;;;;;;10.30;7.22;;;;;;;9.27;100.00;96222.06;5068284;27;20058;-67
2022/05/19 06:27:45;;;;;;;9.65;6.40;;;;;;;9.31;100.00;96223.31;5066410;27;20043;-67
2022/05/19 06:30:12;;;;;;;10.05;6.28;;;;;;;9.21;100.00;96212.44;5085736;27;20058;-80
2022/05/19 06:32:40;;;;;;;12.50;6.70;;;;;;;9.49;100.00;96222.03;5093006;27;20116;-77
2022/05/19 06:35:10;;;;;;;11.32;6.70;;;;;;;9.59;100.00;96225.09;5048578;27;20141;-77
2022/05/19 06:37:37;;;;;;;11.02;6.75;;;;;;;9.47;100.00;96216.22;5036468;27;20268;-76
2022/05/19 06:40:05;;;;;;;10.70;6.90;;;;;;;9.27;100.00;96206.47;5037318;27;20568;-76
2022/05/19 06:42:33;;;;;;;14.32;6.40;;;;;;;9.36;100.00;96220.97;5018687;27;20037;-76
2022/05/19 06:45:00;;;;;;;11.20;6.43;;;;;;;9.52;100.00;96203.44;5087946;27;20136;-76
2022/05/19 06:47:28;;;;;;;11.15;6.85;;;;;;;9.75;100.00;96204.00;5047909;27;20494;-76
2022/05/19 06:49:55;;;;;;;10.93;7.38;;;;;;;9.99;100.00;96214.13;5136665;27;20048;-76
2022/05/19 06:52:30;;;;;;;13.80;7.10;;;;;;;10.19;100.00;96214.22;5058443;27;20044;-76
2022/05/19 06:55:00;;;;;;;9.75;6.47;;;;;;;10.07;100.00;96217.38;5018225;27;20053;-77
2022/05/19 06:57:30;;;;;;;10.77;6.45;;;;;;;10.17;100.00;96221.41;5045089;27;20575;-77
2022/05/19 06:59:57;;;;;;;11.30;6.57;;;;;;;10.23;100.00;96225.88;5066373;27;20041;-78
2022/05/19 07:02:26;;;;;;;15.13;6.68;;;;;;;10.20;100.00;96200.22;5052443;27;20560;-80
2022/05/19 07:04:53;;;;;;;8.02;6.10;;;;;;;10.26;100.00;96215.03;5043835;27;20045;-78
2022/05/19 07:07:20;;;;;;;12.55;7.45;;;;;;;10.37;100.00;96211.94;5040114;27;20519;-78
2022/05/19 07:09:47;;;;;;;13.60;7.60;;;;;;;10.32;100.00;96209.91;5079865;27;20059;-77
2022/05/19 07:12:23;;;;;;;8.60;6.38;;;;;;;10.23;98.90;96233.69;5057522;27;20520;-74
2022/05/19 07:14:51;;;;;;;11.98;6.85;;;;;;;10.23;99.70;96231.88;5080471;27;20056;-75
2022/05/19 07:17:19;;;;;;;10.98;6.78;;;;;;;10.30;100.00;96224.09;5038822;27;20044;-73
2022/05/19 07:22:34;;;;;;;5.47;4.30;;;;;;;10.31;99.09;96228.31;5085225;27;20038;-73
2022/05/19 07:25:03;;;;;;;7.85;5.50;;;;;;;10.51;100.00;96224.00;5039891;27;20473;-73
2022/05/19 07:27:30;;;;;;;7.65;5.43;;;;;;;10.67;100.00;96222.03;5045548;27;20355;-73
2022/05/19 07:29:59;;;;;;;7.75;6.18;;;;;;;10.68;99.70;96236.66;5034680;27;20519;-74
2022/05/19 07:32:26;;;;;;;9.00;5.45;;;;;;;10.93;100.00;96225.66;5044376;27;20105;-72
2022/05/19 07:34:56;;;;;;;8.80;4.93;;;;;;;11.20;97.37;96216.88;5036697;27;20049;-73
2022/05/19 07:37:24;;;;;;;20.13;6.63;;;;;;;11.33;96.68;96223.09;5082967;27;20091;-73
2022/05/19 07:39:52;;;;;;;7.28;5.07;;;;;;;11.40;94.15;96231.72;5046535;27;20061;-73
2022/05/19 07:42:20;;;;;;;8.93;5.13;;;;;;;11.73;93.76;96225.66;5064487;27;20042;-73
2022/05/19 07:44:47;;;;;;;11.27;4.95;;;;;;;11.70;91.76;96223.47;5087308;27;20037;-73
2022/05/19 07:47:14;;;;;;;7.90;4.25;;;;;;;11.81;90.02;96207.16;5079412;27;20042;-72
2022/05/19 07:49:41;;;;;;;6.75;4.00;;;;;;;11.95;87.62;96219.22;5038693;27;20507;-72
2022/05/19 07:52:10;;;;;;;7.53;3.47;;;;;;;11.95;86.79;96206.16;5036182;27;20045;-73
2022/05/19 07:54:37;;;;;;;6.85;3.67;;;;;;;12.30;84.86;96211.06;5082017;27;20031;-72
2022/05/19 07:57:04;;;;;;;4.68;3.30;;;;;;;12.48;83.32;96206.94;5042044;27;20063;-73
2022/05/19 07:59:32;;;;;;;5.35;3.40;;;;;;;12.56;84.22;96193.66;5075944;27;20509;-72
2022/05/19 08:01:59;;;;;;;5.72;3.80;;;;;;;12.85;83.95;96222.84;5073526;27;20478;-73
2022/05/19 08:04:26;;;;;;;5.95;4.10;;;;;;;13.08;86.12;96212.63;5137096;27;20060;-73
2022/05/19 08:06:54;;;;;;;6.05;4.00;;;;;;;12.96;79.17;96209.09;5052699;27;20053;-73
2022/05/19 08:12:13;;;;;;;6.30;3.63;;;;;;;13.45;80.59;96210.16;5076274;27;20513;-71
2022/05/19 08:17:30;;;;;;;13.27;3.58;;;;;;;13.65;79.97;96201.31;5057694;27;20451;-71
2022/05/19 08:19:58;;;;;;;5.63;3.88;;;;;;;13.86;80.87;96208.75;5034511;27;20138;-71
2022/05/19 08:22:26;;;;;;;4.50;3.00;;;;;;;13.77;71.60;96210.06;5053153;27;20041;-71
2022/05/19 08:24:53;;;;;;;6.47;3.97;;;;;;;13.88;72.72;96206.72;5052728;27;20059;-71
2022/05/19 08:27:20;;;;;;;6.43;3.53;;;;;;;14.13;71.88;96203.22;5084334;27;20049;-71
2022/05/19 08:29:48;;;;;;;6.75;3.50;;;;;;;14.51;72.18;96204.78;5038382;27;20469;-71
2022/05/19 08:32:16;;;;;;;3.92;2.22;;;;;;;14.69;66.54;96207.41;5016683;27;20041;-71
2022/05/19 08:34:43;;;;;;;7.80;3.45;;;;;;;14.36;67.72;96201.75;5039396;27;20473;-72
2022/05/19 08:37:10;;;;;;;8.95;3.05;;;;;;;14.33;67.00;96188.06;5050354;27;20040;-72
2022/05/19 08:39:36;;;;;;;4.15;2.28;;;;;;;14.71;69.61;96200.09;5037335;27;20591;-72
2022/05/19 08:42:06;;;;;;;3.63;2.22;;;;;;;14.56;67.64;96197.03;5044129;27;20074;-72
2022/05/19 08:44:45;;;;;;;4.65;2.70;;;;;;;14.84;64.80;96203.56;5077822;27;20035;-71
2022/05/19 08:47:13;;;;;;;4.32;2.00;;;;;;;15.03;62.95;96194.59;5075822;27;20041;-72
2022/05/19 08:49:58;;;;;;;6.55;3.47;;;;;;;15.12;55.06;96195.06;5062976;27;20505;-72
2022/05/19 08:52:29;;;;;;;5.13;2.88;;;;;;;15.13;60.56;96201.13;5061195;27;20046;-72
2022/05/19 08:54:59;;;;;;;3.53;1.90;;;;;;;15.42;59.56;96189.72;5027060;27;20068;-72
2022/05/19 08:57:32;;;;;;;1.80;1.30;;;;;;;15.60;53.75;96190.66;5090539;27;20509;-72
2022/05/19 09:00:11;;;;;;;3.05;1.95;;;;;;;15.55;58.16;96193.16;5039781;27;20117;-72
2022/05/19 09:02:46;;;;;;;4.65;2.10;;;;;;;15.92;58.43;96182.41;5057918;27;20046;-72
2022/05/19 09:05:31;;;;;;;4.10;1.98;;;;;;;16.20;57.97;96179.84;5037829;27;20043;-72
2022/05/19 09:08:22;;;;;;;5.85;2.75;;;;;;;15.89;56.40;96177.63;5044191;27;20037;-72
2022/05/19 09:11:06;;;;;;;2.50;1.73;;;;;;;16.12;54.84;96179.44;5063271;27;20052;-72
2022/05/19 09:13:50;;;;;;;4.03;1.80;;;;;;;16.22;56.11;96143.63;5042298;27;20055;-72
2022/05/19 09:16:33;;;;;;;4.53;2.20;;;;;;;16.81;53.37;96168.84;5040714;27;20522;-72
2022/05/19 09:19:07;;;;;;;3.55;1.95;;;;;;;16.77;51.61;96175.63;5040102;27;20138;-72
2022/05/19 09:21:36;;;;;;;1.60;1.13;;;;;;;17.04;51.95;96161.88;5073893;27;20040;-72
2022/05/19 09:24:05;;;;;;;2.40;1.80;;;;;;;17.20;50.75;96153.19;5081870;27;20035;-72
2022/05/19 09:26:41;;;;;;;3.78;1.88;;;;;;;17.07;51.75;96156.13;5044255;27;20045;-72
2022/05/19 09:29:21;;;;;;;4.28;1.40;;;;;;;17.33;51.24;96155.47;5077861;27;20532;-72
2022/05/19 09:32:03;;;;;;;1.52;1.00;;;;;;;17.44;45.31;96166.19;5080419;27;20046;-72
2022/05/19 09:34:36;;;;;;;2.22;1.38;;;;;;;17.59;43.63;96153.19;5053015;27;20062;-72
2022/05/19 09:37:03;;;;;;;8.70;1.30;;;;;;;18.07;45.07;96159.66;5038284;27;20049;-72
2022/05/19 09:39:33;;;;;;;1.45;0.95;;;;;;;18.07;42.71;96156.22;5038683;27;20462;-72
2022/05/19 09:42:06;;;;;;;4.05;1.10;;;;;;;17.99;42.19;96157.47;5036850;27;20048;-71
2022/05/19 09:44:34;;;;;;;3.00;1.13;;;;;;;17.56;41.87;96153.72;5041751;27;20033;-72
2022/05/19 09:47:24;;;;;;;3.83;1.30;;;;;;;17.82;42.34;96140.88;5041408;27;20041;-72
2022/05/19 09:50:04;;;;;;;2.17;1.13;;;;;;;17.76;41.85;96140.00;5038419;27;20053;-71
2022/05/19 09:52:32;;;;;;;2.58;1.13;;;;;;;17.87;40.69;96144.38;5040197;27;20044;-73
2022/05/19 09:55:02;;;;;;;3.95;1.60;;;;;;;18.13;41.46;96142.88;5042356;27;20045;-73
2022/05/19 09:58:10;;;;;;;1.63;1.02;;;;;;;18.06;40.45;96142.25;5038831;27;20055;-73
2022/05/19 10:01:08;;;;;;;2.85;1.38;;;;;;;18.41;40.31;96135.75;4980889;28;20625;-73
2022/05/19 10:03:43;;;;;;;2.00;1.30;;;;;;;18.75;38.93;96143.47;4992771;28;20362;-73
2022/05/19 10:06:22;;;;;;;4.10;1.13;;;;;;;19.22;39.86;96126.19;5023782;27;20060;-72
2022/05/19 10:08:59;;;;;;;1.10;0.75;;;;;;;19.39;37.29;96131.31;5036113;27;20508;-72
2022/05/19 10:11:28;;;;;;;2.15;1.10;;;;;;;19.81;38.90;96133.16;5040511;27;20041;-72
2022/05/19 10:13:56;;;;;;;1.73;0.95;;;;;;;19.69;35.78;96135.97;5040028;27;20060;-73
2022/05/19 10:17:02;;;;;;;1.30;0.85;;;;;;;19.72;37.67;96124.09;5046546;27;20043;-73
2022/05/19 10:19:52;;;;;;;1.77;1.00;;;;;;;19.92;36.30;96115.50;5039265;27;20033;-71
2022/05/19 10:22:56;;;;;;;3.30;1.00;;;;;;;19.95;35.32;96123.72;5037889;27;20080;-72
2022/05/19 10:25:34;;;;;;;2.28;0.90;;;;;;;19.78;37.68;96101.97;5034738;27;20053;-71
2022/05/19 10:31:49;;;;;;;4.32;1.00;;;;;;;19.37;36.44;96112.28;5037844;27;20037;-73
2022/05/19 10:34:37;;;;;;;0.88;0.38;;;;;;;18.99;36.04;96106.22;5019715;27;20055;-73
2022/05/19 10:37:42;;;;;;;2.13;1.25;;;;;;;19.01;38.29;96099.63;5038097;27;20101;-72
2022/05/19 10:40:29;;;;;;;1.02;0.73;;;;;;;19.31;36.50;96097.47;5041980;27;20056;-73
2022/05/19 10:43:24;;;;;;;2.33;1.10;;;;;;;19.05;37.71;96068.22;5042645;27;20064;-72
2022/05/19 10:45:55;;;;;;;5.03;1.33;;;;;;;19.13;36.79;96088.91;5036015;27;20049;-71
2022/05/19 10:48:50;;;;;;;1.83;0.80;;;;;;;19.77;37.30;96095.06;5020703;27;20552;-72
2022/05/19 10:51:22;;;;;;;;;;;;;;;20.04;36.39;96090.41;5042844;27;20052;-72
2022/05/19 10:54:17;;;;;;;1.52;0.88;;;;;;;20.39;35.03;96086.25;5038372;27;19962;-73
2022/05/19 10:57:09;;;;;;;5.70;0.70;;;;;;;20.64;35.41;96091.88;5021100;27;20049;-72
2022/05/19 10:59:51;;;;;;;3.80;1.00;;;;;;;21.33;35.89;96093.16;5021128;27;20528;-72
2022/05/19 11:02:26;;;;;;;3.05;1.38;;;;;;;22.12;33.45;96082.81;5038541;27;20041;-74
2022/05/19 11:05:02;;;;;;;1.75;1.02;;;;;;;22.48;31.68;96086.06;5037163;27;20462;-75
2022/05/19 11:07:57;;;;;;;2.83;1.00;;;;;;;22.33;31.45;96079.00;5040705;27;20045;-73
2022/05/19 11:10:37;;;;;;;4.07;0.93;;;;;;;22.37;31.32;96078.47;5036571;27;20039;-74
2022/05/19 11:13:30;;;;;;;1.48;0.90;;;;;;;22.32;32.12;96077.41;5037016;27;20127;-75
2022/05/19 11:16:23;;;;;;;3.20;1.00;;;;;;;21.90;31.02;96081.34;5086852;27;20488;-76
2022/05/19 11:19:07;;;;;;;6.65;1.88;;;;;;;21.68;31.09;96065.78;5036938;27;20108;-75
2022/05/19 11:21:41;;;;;;;1.60;0.60;;;;;;;21.69;32.82;96074.53;5059367;27;20435;-75
2022/05/19 11:24:25;;;;;;;1.13;0.65;;;;;;;21.49;33.38;96068.22;5061517;27;20036;-74
2022/05/19 11:27:10;;;;;;;2.40;1.10;;;;;;;21.49;32.37;96068.22;5035867;27;20049;-74
2022/05/19 11:29:49;;;;;;;1.73;0.82;;;;;;;21.81;31.72;96061.75;5022443;27;20542;-75
2022/05/19 11:32:25;;;;;;;1.15;0.82;;;;;;;22.41;31.70;96058.25;5048879;27;20045;-75
2022/05/19 11:35:13;;;;;;;1.95;0.55;;;;;;;22.83;30.73;96048.91;5079730;27;20078;-75
2022/05/19 11:37:56;;;;;;;1.10;0.70;;;;;;;23.17;29.89;96038.25;5036601;27;20465;-75
2022/05/19 11:40:37;;;;;;;4.10;0.82;;;;;;;23.56;29.53;96050.59;5034633;27;20045;-75
2022/05/19 11:43:13;;;;;;;1.65;0.80;;;;;;;23.58;29.12;96048.44;5062870;27;20044;-75
2022/05/19 11:45:52;;;;;;;3.72;0.80;;;;;;;24.05;27.89;96040.69;5035056;27;21766;-75
2022/05/19 11:55:14;;;;;;;1.23;0.82;;;;;;;23.68;28.88;96023.59;5070517;27;20123;-75
2022/05/19 11:58:00;;;;;;;3.03;0.70;;;;;;;23.95;28.60;96019.53;5033393;27;20048;-75
2022/05/19 12:00:35;;;;;;;3.13;0.75;;;;;;;24.10;28.94;96022.00;5053819;27;20430;-75
2022/05/19 12:03:45;;;;;;;1.25;1.13;;;;;;;23.99;29.15;96004.59;5060676;27;20090;-75
2022/05/19 12:06:18;;;;;;;1.27;0.60;;;;;;;23.91;28.11;95999.91;5042684;27;20043;-75
2022/05/19 12:08:56;;;;;;;3.28;1.08;;;;;;;23.79;27.36;96011.75;5116407;27;20045;-75
2022/05/19 12:11:36;;;;;;;1.42;0.70;;;;;;;23.54;28.35;96009.41;5060783;27;20422;-75
2022/05/19 12:14:30;;;;;;;1.75;0.70;;;;;;;23.63;27.14;96016.47;5036985;27;20713;-75
2022/05/19 12:17:00;;;;;;;2.15;1.48;;;;;;;23.53;28.19;96015.78;5025613;27;20105;-75